Station: Mount Crawford

  Atmospheric Gas Attenuation - ITU Rec 676-11   --------------- db/100km ---------------
Date Time Temp RH % AH g/m3 Dew Point Wind Direction Speed kph Gust kph Barometer mB Rainfall Since 9am 24GHz 47GHz 76GHz 122GHz 134GHz 241GHz
25 01:40 13.1 80 9.13 9.7 15 17 1012 0 20.8 26.9 42.3 111.0 106.3 366.1
25 01:30 13.3 80 9.24 9.9 17 20 1012 0 21.0 27.0 42.6 112.0 107.5 370.4
25 01:20 13.1 81 9.24 9.9 19 19 1012.2 0 21.0 27.1 42.7 112.3 107.8 371.4
25 01:10 12.7 83 9.24 9.9 17 19 1012.3 0 21.0 27.2 42.9 112.9 108.4 373.4
25 01:00 12.8 83 9.3 10 19 22 1012.2 0 21.1 27.3 43.1 113.4 109.1 375.7
25 00:50 12.7 84 9.35 10.1 17 20 1012.4 0 21.3 27.4 43.4 114.1 109.9 378.7
25 00:40 12.9 82 9.24 9.9 17 20 1012.6 0 21.0 27.2 42.9 112.6 108.2 372.5
25 00:30 12.9 83 9.36 10.1 19 20 1012.6 0 21.3 27.4 43.4 113.9 109.8 378.3
25 00:20 12.8 83 9.3 10 19 20 1012.9 0 21.1 27.3 43.2 113.5 109.1 376.0
25 00:10 12.6 86 9.52 10.3 17 19 1013 0 21.6 27.8 44.2 116.2 112.5 387.6
25 00:00 12.6 87 9.63 10.5 15 17 1013.2 0 21.9 28.0 44.7 117.5 114.0 393.0
24 23:50 12.8 85 9.52 10.3 17 17 1013.3 0 21.6 27.7 44.1 116.0 112.2 386.7
24 23:40 13 84 9.53 10.4 19 20 1013.4 0 21.6 27.7 44.1 115.8 112.1 386.2
24 23:30 13.1 84 9.59 10.5 19 24 1013.5 0 21.7 27.8 44.3 116.3 112.8 388.6
24 23:20 13.1 85 9.7 10.6 20 20 1013.6 0 22.0 27.9 44.7 117.6 114.3 394.0
24 23:10 13.2 84 9.65 10.6 19 22 1013.6 0 21.9 27.8 44.5 116.9 113.5 391.1
24 23:00 13.3 84 9.71 10.7 20 22 1013.6 0 22.0 27.9 44.6 117.4 114.1 393.5
24 22:50 13.3 84 9.71 10.7 19 22 1013.8 0 22.0 27.9 44.7 117.4 114.2 393.5
24 22:40 13.5 83 9.71 10.7 19 20 1013.8 0 22.0 27.8 44.5 117.1 113.9 392.5
24 22:30 13.8 82 9.77 10.8 20 24 1013.8 0 22.1 27.8 44.6 117.3 114.2 393.9
24 22:20 13.8 82 9.77 10.8 19 22 1013.9 0 22.1 27.9 44.6 117.3 114.2 393.9
24 22:10 14.1 81 9.83 10.9 20 24 1013.9 0 22.2 27.9 44.7 117.6 114.6 395.3
24 22:00 14.1 81 9.83 10.9 20 26 1013.8 0 22.2 27.9 44.7 117.5 114.6 395.3
24 21:50 14.3 80 9.83 10.9 20 22 1013.9 0 22.2 27.8 44.6 117.3 114.3 394.3
24 21:40 14.5 79 9.83 10.9 19 24 1013.9 0 22.2 27.7 44.5 117.0 114.0 393.3
24 21:30 14.7 78 9.82 10.9 20 30 1013.8 0 22.2 27.6 44.3 116.5 113.6 391.7
24 21:20 15 76 9.75 10.8 24 30 1013.8 0 22.0 27.4 43.9 115.3 112.2 386.9
24 21:10 15.2 75 9.73 10.8 22 26 1013.9 0 21.9 27.3 43.7 114.8 111.6 385.0
24 21:00 15.5 72 9.52 10.5 20 26 1013.8 0 21.5 26.9 42.7 112.1 108.4 373.7
24 20:50 15.6 71 9.44 10.4 19 20 1013.9 0 21.3 26.7 42.3 111.1 107.2 369.5
24 20:40 16.1 69 9.46 10.4 19 20 1013.9 0 21.3 26.6 42.1 110.6 106.8 368.1
24 20:30 16.1 69 9.46 10.4 17 20 1013.8 0 21.3 26.6 42.1 110.6 106.8 368.1
24 20:20 16.4 67 9.35 10.3 19 22 1013.9 0 21.1 26.4 41.5 109.0 104.9 361.6
24 20:10 16.9 66 9.49 10.5 15 19 1013.9 0 21.3 26.4 41.8 109.8 106.1 365.7
24 20:00 17.1 65 9.46 10.5 19 26 1013.7 0 21.3 26.3 41.6 109.2 105.4 363.4
24 19:50 17.6 63 9.45 10.5 17 20 1013.8 0 21.2 26.2 41.3 108.4 104.6 360.7
24 19:40 18.1 61 9.42 10.5 15 17 1013.6 0 21.1 26.0 40.9 107.4 103.5 357.0
24 19:30 18.7 59 9.45 10.5 17 24 1013.5 0 21.2 25.8 40.7 106.9 103.1 355.6
24 19:20 19.5 58 9.73 11 15 19 1013.5 0 21.7 26.0 41.4 108.7 105.6 364.4
24 19:10 20 56 9.68 11 15 19 1013.4 0 21.6 25.8 40.9 107.5 104.3 359.9
24 19:00 20.4 54 9.55 10.8 15 22 1013.4 0 21.3 25.5 40.2 105.6 102.1 352.4
24 18:50 21.5 51 9.62 10.9 11 15 1013.4 0 21.4 25.3 39.9 104.9 101.6 350.6
24 18:40 21.7 51 9.73 11.1 7 9 1013.2 0 21.6 25.4 40.2 105.7 102.7 354.4
24 18:30 21.9 51 9.84 11.3 15 19 1013 0 21.8 25.5 40.5 106.5 103.7 358.2
24 18:20 22.3 50 9.87 11.4 15 17 1013.1 0 21.9 25.4 40.4 106.3 103.6 357.8
24 18:10 22.3 51 10.07 11.7 11 13 1013 0 22.3 25.7 41.2 108.3 106.1 366.4
24 18:00 22.3 51 10.07 11.7 17 22 1013 0 22.3 25.7 41.2 108.3 106.1 366.4
24 17:50 22.3 49 9.67 11.1 15 20 1013 0 21.4 25.1 39.7 104.3 101.1 349.2
24 17:40 22.1 49 9.56 10.9 17 20 1013 0 21.2 25.0 39.4 103.5 100.1 345.3
24 17:30 22.8 48 9.75 11.2 17 22 1012.9 0 21.6 25.1 39.7 104.4 101.5 350.4
24 17:20 22.6 50 10.04 11.7 17 19 1013.1 0 22.2 25.6 40.9 107.6 105.3 363.7
24 17:10 22.8 49 9.96 11.5 19 22 1013.1 0 22.0 25.4 40.5 106.5 104.0 359.4
24 17:00 23 51 10.48 12.3 17 26 1013.2 0 23.1 26.2 42.4 111.5 110.2 380.9
24 16:50 22.9 52 10.63 12.5 13 15 1013.2 0 23.4 26.4 43.0 113.1 112.2 388.0
24 16:40 23.1 51 10.54 12.4 19 22 1013.2 0 23.2 26.2 42.6 111.9 110.8 383.1
24 16:30 22.9 49 10.01 11.6 19 26 1013.2 0 22.1 25.5 40.7 106.9 104.5 361.1
24 16:20 23.5 50 10.57 12.5 13 17 1013.3 0 23.3 26.2 42.5 111.7 110.6 382.5
24 16:10 22.7 50 10.1 12 15 19 1013.4 0 22.3 25.7 41.1 108.1 105.9 365.9
24 16:00 23.4 51 10.72 12.7 17 22 1013.5 0 23.6 26.4 43.1 113.4 112.6 389.5
24 15:50 23.6 50 10.63 12.6 15 19 1013.6 0 23.4 26.2 42.7 112.2 111.2 384.7
24 15:40 23.2 51 10.6 12.5 15 17 1013.8 0 23.3 26.3 42.8 112.5 111.5 385.4
24 15:30 23 49 10.07 11.7 17 24 1013.7 0 22.2 25.6 40.9 107.4 105.2 363.4
24 15:20 22.2 50 9.82 11.3 19 22 1014 0 21.8 25.4 40.3 106.0 103.2 356.3
24 15:10 22.9 53 10.83 12.8 11 15 1014 0 23.8 26.8 43.8 115.3 114.8 397.0
24 15:00 23.2 50 10.39 12.2 11 17 1014 0 22.9 26.0 42.0 110.4 108.9 376.3
24 14:50 23.9 38 8.22 8.7 13 17 1014.3 0 18.3 22.7 33.8 88.7 82.3 283.3
24 14:40 23.6 36 7.66 7.7 7 9 1014.3 0 17.2 22.0 32.0 83.8 76.3 262.2
24 14:30 22.9 37 7.56 7.4 11 20 1014.2 0 17.0 22.0 32.0 83.6 75.8 260.4
24 14:20 23.4 37 7.78 7.9 6 9 1014.5 0 17.4 22.2 32.5 85.2 77.8 267.6
24 14:10 23.7 38 8.13 8.5 15 19 1014.5 0 18.1 22.6 33.6 88.1 81.5 280.5
24 14:00 23.5 40 8.46 9.1 9 19 1014.5 0 18.8 23.1 34.8 91.3 85.5 294.4
24 13:50 22.9 39 7.97 8.2 9 11 1014.7 0 17.8 22.6 33.4 87.5 80.5 276.9
24 13:40 22.6 39 7.83 8 6 7 1014.9 0 17.6 22.5 33.0 86.5 79.2 272.3
24 13:30 22.5 44 8.79 9.6 9 17 1014.9 0 19.6 23.9 36.5 95.7 90.5 311.8
24 13:20 22.3 41 8.1 8.4 6 7 1015 0 18.1 22.9 34.1 89.3 82.6 284.2
24 13:10 22.4 45 8.94 9.9 15 20 1015.1 0 19.9 24.1 37.1 97.2 92.4 318.5
24 13:00 21.4 44 8.25 8.7 11 20 1015.2 0 18.5 23.4 35.0 91.8 85.3 293.6
24 12:50 22.2 43 8.44 9 13 17 1015.3 0 18.9 23.4 35.4 92.7 86.7 298.6
24 12:40 22.2 44 8.64 9.4 6 9 1015.5 0 19.3 23.7 36.1 94.6 89.1 306.9
24 12:30 20.9 43 7.83 7.9 13 19 1015.5 0 17.6 22.9 33.8 88.4 80.9 278.2
24 12:20 21 41 7.51 7.3 13 15 1015.8 0 17.0 22.4 32.6 85.3 77.2 264.9
24 12:10 21.6 37 7.02 6.3 15 19 1015.8 0 15.9 21.6 30.7 80.2 71.0 243.5
24 12:00 21.4 40 7.5 7.3 15 24 1015.8 0 16.9 22.3 32.4 84.8 76.7 263.2
24 11:50 20.5 43 7.65 7.5 15 17 1015.9 0 17.3 22.7 33.3 87.1 79.3 272.3
24 11:40 20.9 41 7.47 7.2 13 17 1016 0 16.9 22.4 32.5 85.0 76.8 263.7
24 11:30 20.7 45 8.1 8.4 13 17 1015.9 0 18.2 23.3 34.8 91.2 84.4 290.1
24 11:20 19.5 46 7.72 7.6 6 7 1016 0 17.5 23.1 34.0 88.9 81.1 278.6
24 11:10 19.4 46 7.67 7.5 17 19 1016.1 0 17.4 23.1 33.8 88.5 80.6 276.9
24 11:00 19.1 47 7.7 7.5 13 20 1016.1 0 17.4 23.2 34.1 89.2 81.3 279.2
24 10:50 19.5 49 8.22 8.5 13 15 1016.2 0 18.5 23.8 35.8 93.8 87.1 299.6
24 10:40 18.7 48 7.68 7.5 9 13 1016.1 0 17.4 23.2 34.2 89.4 81.4 279.7
24 10:30 17.9 52 7.94 7.9 9 15 1016.1 0 18.0 23.8 35.5 92.9 85.4 293.6
24 10:20 17.9 55 8.4 8.7 6 7 1016.2 0 19.0 24.5 37.2 97.5 91.1 313.5
24 10:10 17.1 53 7.71 7.5 7 9 1016.4 0 17.5 23.7 35.0 91.5 83.5 286.7
24 10:00 16.8 56 8.01 8 9 13 1016.5 0 18.2 24.2 36.2 94.9 87.5 300.8
24 09:50 16.4 60 8.37 8.6 9 11 1016.7 0 19.0 24.9 37.8 99.0 92.5 318.2
24 09:40 16 60 8.17 8.2 9 11 1016.6 0 18.6 24.7 37.2 97.5 90.4 310.9
24 09:30 15.4 64 8.41 8.6 9 13 1016.5 0 19.1 25.3 38.4 100.7 94.2 324.0
24 09:20 15.5 64 8.46 8.7 7 11 1016.5 0 19.2 25.3 38.6 101.1 94.7 325.8
24 09:10 14.6 67 8.38 8.5 7 9 1016.5 0 19.1 25.4 38.7 101.4 94.8 325.9

Last Refresh: 25-Nov-2020 01:53:31

Most of the information presented on this site is sourced from the Bureau of Meteorology.  Copyright in all material sourced from the Bureau of Meteorology resides with the Commonwealth of Australia.